Airfield :
LOGIN :

Register | Disclaimer

   EN    FR    IT 

 










Legend :    VFR   Marginal VFR   IFR   Intensive IFR   Very Intensive IFR
Visi :
Ceiling :
>= 8 km
>= 3000ft
5 to 8 km
1000 to 3000 ft
1500m to 5 km
500 to 1000 ft
800 to 1500m
200 to 500 ft
< 800m
< 200 ft
Symbols :   Thunderstorms  Fog  Heavy snow  Heavy precipitations  Wind > 20 kt
SIGMETs :     Misc.  Thunderstorms  Icing  Turbulence  Mountain Waves  Volcanic Ashes






- Airport Elevation : 779 ft
- IATA code : CMF


LFLB - Chambery / Aix-Les-Bains

CURRENT METAR :
  • 222100Z AUTO 16013KT 110V180 9999 RA BKN019 OVC026 03/02 Q1003

EXPIRED METARs :
  • 222030Z AUTO 10008KT 040V140 9999 -RA FEW014 BKN022 OVC027 04/02 Q1002
  • 222000Z AUTO VRB07G24KT 9000 -RA FEW014 BKN023 OVC029 04/01 Q1001 TEMPO 3000 -SNRA BKN012
  • 221930Z AUTO 16006KT 100V210 9999 RA SCT024 BKN029 BKN035 05/02 Q0999 TEMPO 3000 -SNRA BKN012
  • 221900Z AUTO VRB06KT 6000 -RA FEW017 BKN034 OVC042 06/03 Q0997 TEMPO 3000 -SNRA BKN004 OVC020
  • 221830Z AUTO 17006KT 130V230 5000 RA BR FEW023 BKN033 OVC043 07/05 Q0996 TEMPO NSW BKN004 OVC020

TAF TAF LFLB
Valid from the 22 at 15:00 until the 23 at 15:00 UTC


221400Z 2215/2315 VRB08KT 6000 -RA BKN020 OVC050
TEMPO 2215/2219 3000 RA BKN012 OVC020
PROB30
TEMPO 2215/2219 VRB15G30KT
TEMPO 2219/2221 BKN012 OVC020
PROB30
TEMPO 2219/2221 3000 -SNRA BKN004 OVC020
FM222100 VRB05KT 9999 BKN040
TEMPO 2221/2306 BKN012
BECMG 2306/2309 18010KT NSC



MET'MAP, your aeronautical weather chart ! - Copyright ORBIFLY December 2007 - Disclaimer

ORBIFLY MET'MAP TEAM :

Programming & Development : Alexandra Zaïnal
Concept & original design : Baudouin d'Aumeries
Assistance for programming : Marc-Olivier Méhu
Technical & hardware support : Manuel Goepfert

Contact : metmap@orbifly.com




SOURCES & CREDITS :

   NOAA